Time;durP1;ratioP1;P1;durP2;ratioP2;P2;SDS_P1;SDS_P2;PMS_P1;PMS_P2;Temp;Humidity;BMP_temperature;BMP_pressure;BME280_temperature;BME280_humidity;BME280_pressure;Samples;Min_cycle;Max_cycle;Signal;HPM_P1;HPM_P2
2021/04/13 00:02:24;;;;;;;4.88;3.00;;;3.00;85.50;;;;;;5064826;28;20808;-74
2021/04/13 00:05:08;;;;;;;5.10;3.53;;;3.00;85.30;;;;;;5070327;28;20237;-73
2021/04/13 00:07:36;;;;;;;8.43;5.80;;;2.90;85.60;;;;;;5057753;28;20470;-74
2021/04/13 00:10:19;;;;;;;10.57;4.83;;;2.80;87.00;;;;;;5069257;28;20294;-74
2021/04/13 00:12:46;;;;;;;10.30;5.03;;;2.80;88.00;;;;;;5069179;28;20950;-72
2021/04/13 00:15:22;;;;;;;7.05;3.97;;;2.80;88.70;;;;;;5069238;28;20426;-74
2021/04/13 00:17:48;;;;;;;7.70;4.70;;;2.80;89.20;;;;;;5068903;28;20296;-74
2021/04/13 00:20:19;;;;;;;9.13;4.77;;;2.70;88.60;;;;;;5069381;28;20180;-74
2021/04/13 00:22:46;;;;;;;7.97;4.30;;;2.70;89.30;;;;;;5069398;28;20195;-73
2021/04/13 00:25:26;;;;;;;8.60;5.00;;;2.70;89.70;;;;;;5065197;28;20188;-72
2021/04/13 00:27:52;;;;;;;6.75;4.45;;;2.70;89.90;;;;;;5060365;28;20486;-72
2021/04/13 00:30:22;;;;;;;5.77;3.40;;;2.60;90.00;;;;;;5069320;28;20288;-74
2021/04/13 00:32:55;;;;;;;8.03;3.80;;;2.60;90.10;;;;;;5068088;28;20469;-74
2021/04/13 00:35:30;;;;;;;7.93;4.68;;;2.60;89.90;;;;;;5064623;28;20431;-74
2021/04/13 00:38:14;;;;;;;6.07;3.67;;;2.60;90.00;;;;;;5066188;28;20653;-72
2021/04/13 00:40:41;;;;;;;6.00;3.67;;;2.70;89.90;;;;;;5065513;28;20569;-71
2021/04/13 00:43:09;;;;;;;4.63;3.80;;;2.60;89.30;;;;;;5069062;28;20191;-73
2021/04/13 00:45:39;;;;;;;7.85;4.50;;;2.70;88.90;;;;;;5069004;28;20188;-72
2021/04/13 00:48:07;;;;;;;7.72;4.22;;;2.60;88.30;;;;;;5064028;28;20234;-74
2021/04/13 00:50:45;;;;;;;8.38;4.47;;;2.70;88.40;;;;;;5063422;28;20184;-73
2021/04/13 00:53:16;;;;;;;6.10;3.88;;;2.70;88.70;;;;;;5064508;28;20218;-75
2021/04/13 00:55:51;;;;;;;9.02;4.70;;;2.70;88.70;;;;;;5060638;28;20723;-75
2021/04/13 00:58:20;;;;;;;7.00;4.47;;;2.70;88.90;;;;;;5060053;28;20203;-72
2021/04/13 01:01:20;;;;;;;6.82;3.92;;;2.80;88.90;;;;;;5068782;28;20452;-73
2021/04/13 01:04:01;;;;;;;7.60;4.78;;;2.90;88.90;;;;;;5067101;28;20227;-72
2021/04/13 01:06:30;;;;;;;7.30;4.70;;;2.80;88.90;;;;;;5070479;28;20708;-73
2021/04/13 01:09:24;;;;;;;8.10;4.80;;;2.90;88.90;;;;;;5068717;28;20429;-74
2021/04/13 01:12:18;;;;;;;6.80;4.43;;;3.00;88.70;;;;;;5077706;28;20427;-73
2021/04/13 01:14:44;;;;;;;8.95;5.35;;;3.00;88.70;;;;;;5060919;28;20996;-73
2021/04/13 01:17:10;;;;;;;8.57;4.87;;;3.00;88.90;;;;;;5070852;28;20223;-74
2021/04/13 01:20:07;;;;;;;10.10;5.25;;;3.00;88.70;;;;;;5069881;28;20188;-75
2021/04/13 01:25:33;;;;;;;7.93;4.75;;;3.00;88.90;;;;;;5072330;28;20270;-72
2021/04/13 01:28:21;;;;;;;9.73;5.80;;;3.00;88.70;;;;;;5072719;28;20203;-72
2021/04/13 01:30:53;;;;;;;10.02;5.80;;;3.00;88.60;;;;;;5073363;28;20438;-74
2021/04/13 01:33:34;;;;;;;9.00;6.00;;;3.00;88.60;;;;;;5072483;28;20281;-75
2021/04/13 01:36:00;;;;;;;11.87;6.33;;;3.00;88.70;;;;;;5074245;28;20425;-73
2021/04/13 01:38:42;;;;;;;15.93;7.70;;;2.90;88.40;;;;;;5079077;28;20446;-74
2021/04/13 01:43:46;;;;;;;12.87;8.00;;;2.80;89.00;;;;;;5075258;28;20183;-73
2021/04/13 01:46:13;;;;;;;13.90;7.90;;;2.70;89.50;;;;;;5077983;28;20453;-74
2021/04/13 01:48:41;;;;;;;17.70;9.97;;;2.70;89.90;;;;;;5078553;28;20279;-72
2021/04/13 01:51:08;;;;;;;15.40;8.70;;;2.70;90.10;;;;;;5072925;28;20510;-73
2021/04/13 01:53:41;;;;;;;18.87;10.97;;;2.60;90.20;;;;;;5069929;28;20497;-73
2021/04/13 01:56:30;;;;;;;20.17;10.97;;;2.60;90.40;;;;;;5078077;28;20793;-74
2021/04/13 01:59:05;;;;;;;19.98;10.82;;;2.60;90.30;;;;;;5079295;28;20449;-73
2021/04/13 02:01:37;;;;;;;13.13;7.68;;;2.50;90.30;;;;;;5075711;28;20180;-74
2021/04/13 02:04:26;;;;;;;14.27;7.88;;;2.40;90.70;;;;;;5079437;28;20203;-74
2021/04/13 02:06:55;;;;;;;22.95;10.50;;;2.40;91.10;;;;;;5078755;28;20205;-73
2021/04/13 02:09:43;;;;;;;15.65;9.48;;;2.40;91.40;;;;;;5076816;28;20219;-73
2021/04/13 02:12:12;;;;;;;14.50;8.43;;;2.50;91.50;;;;;;5078653;28;20215;-73
2021/04/13 02:15:09;;;;;;;13.57;7.43;;;2.50;91.50;;;;;;5077533;28;21007;-74
2021/04/13 02:17:43;;;;;;;12.93;7.23;;;2.50;91.20;;;;;;5062036;28;20433;-73
2021/04/13 02:20:12;;;;;;;16.63;8.67;;;2.40;91.20;;;;;;5071772;28;20414;-74
2021/04/13 02:22:48;;;;;;;12.43;7.97;;;2.40;91.20;;;;;;5067289;28;20462;-73
2021/04/13 02:25:22;;;;;;;10.80;6.20;;;2.30;91.20;;;;;;5071376;28;20194;-74
2021/04/13 02:27:49;;;;;;;11.52;6.57;;;2.20;91.30;;;;;;5072906;28;20441;-73
2021/04/13 02:30:27;;;;;;;14.82;7.72;;;2.20;91.30;;;;;;5071475;28;20191;-74
2021/04/13 02:32:54;;;;;;;15.75;9.30;;;2.20;91.60;;;;;;5071245;28;20214;-74
2021/04/13 02:35:27;;;;;;;20.52;9.50;;;2.20;91.60;;;;;;5070746;28;20218;-74
2021/04/13 02:37:57;;;;;;;13.25;8.98;;;2.10;91.70;;;;;;5069476;28;20270;-72
2021/04/13 02:40:38;;;;;;;16.55;8.77;;;2.10;91.70;;;;;;5069679;28;20200;-72
2021/04/13 02:43:10;;;;;;;17.38;8.50;;;2.10;91.50;;;;;;5070366;28;20211;-73
2021/04/13 02:45:52;;;;;;;15.30;7.97;;;2.00;91.20;;;;;;5070768;28;20183;-72
2021/04/13 02:48:31;;;;;;;12.55;7.65;;;2.00;91.50;;;;;;5069213;28;20677;-72
2021/04/13 02:51:03;;;;;;;14.35;7.10;;;2.00;91.60;;;;;;5070753;28;20183;-74
2021/04/13 02:53:56;;;;;;;10.82;6.63;;;2.00;91.80;;;;;;5070870;28;20219;-73
2021/04/13 02:56:39;;;;;;;12.48;6.70;;;2.00;92.00;;;;;;5068435;28;20198;-71
2021/04/13 02:59:18;;;;;;;11.38;6.35;;;1.90;92.10;;;;;;5071597;28;20292;-73
2021/04/13 03:02:02;;;;;;;12.95;8.48;;;1.90;92.30;;;;;;5072258;28;20210;-73
2021/04/13 03:04:29;;;;;;;16.33;8.82;;;2.00;92.40;;;;;;5069765;28;20195;-72
2021/04/13 03:06:58;;;;;;;15.70;8.27;;;2.00;92.20;;;;;;5072902;28;20234;-73
2021/04/13 03:09:27;;;;;;;18.08;7.85;;;2.00;92.10;;;;;;5071742;28;20567;-75
2021/04/13 03:11:59;;;;;;;16.67;8.20;;;2.10;91.60;;;;;;5072548;28;20180;-72
2021/04/13 03:14:26;;;;;;;13.00;7.60;;;2.10;91.40;;;;;;5070582;28;20282;-72
2021/04/13 03:16:55;;;;;;;13.93;7.88;;;2.10;91.40;;;;;;5070469;28;20714;-74
2021/04/13 03:19:25;;;;;;;14.47;9.03;;;2.20;91.40;;;;;;5070365;28;20376;-73
2021/04/13 03:21:54;;;;;;;17.40;8.40;;;2.20;91.50;;;;;;5085563;28;20498;-73
2021/04/13 03:24:30;;;;;;;14.30;8.68;;;2.20;91.50;;;;;;5070216;28;20180;-72
2021/04/13 03:26:59;;;;;;;13.80;7.60;;;2.30;91.40;;;;;;5057016;28;20207;-73
2021/04/13 03:29:50;;;;;;;14.60;7.70;;;2.30;91.40;;;;;;5068498;28;20184;-72
2021/04/13 03:32:20;;;;;;;18.42;7.95;;;2.30;91.20;;;;;;5069666;28;20461;-75
2021/04/13 03:34:46;;;;;;;14.93;8.52;;;2.30;91.00;;;;;;5069639;28;20183;-74
2021/04/13 03:37:14;;;;;;;14.95;8.50;;;2.30;91.00;;;;;;5070139;28;20204;-73
2021/04/13 03:39:43;;;;;;;14.88;7.57;;;2.20;91.20;;;;;;5069746;28;20180;-73
2021/04/13 03:42:24;;;;;;;15.75;8.57;;;2.10;91.40;;;;;;5069576;28;20187;-73
2021/04/13 03:44:51;;;;;;;15.05;7.65;;;2.10;91.70;;;;;;5069622;28;20179;-75
2021/04/13 03:47:21;;;;;;;15.60;8.27;;;2.00;92.10;;;;;;5067735;28;20227;-73
2021/04/13 03:49:48;;;;;;;18.35;8.20;;;2.00;92.20;;;;;;5066982;28;20219;-73
2021/04/13 03:52:43;;;;;;;13.57;8.02;;;1.90;92.50;;;;;;5069312;28;20904;-72
2021/04/13 03:55:17;;;;;;;14.55;7.60;;;2.00;92.80;;;;;;5023688;28;20204;-72
2021/04/13 03:57:43;;;;;;;17.83;7.85;;;2.00;92.70;;;;;;5016659;28;21086;-74
2021/04/13 04:00:15;;;;;;;15.20;7.30;;;2.00;92.70;;;;;;5013620;28;20206;-74
2021/04/13 04:02:41;;;;;;;12.55;7.35;;;1.90;92.80;;;;;;5010433;28;20481;-74
2021/04/13 04:05:12;;;;;;;12.30;7.33;;;1.90;92.80;;;;;;5024223;28;20308;-72
2021/04/13 04:07:47;;;;;;;12.00;6.93;;;1.90;92.60;;;;;;5019646;28;20209;-73
2021/04/13 04:10:28;;;;;;;15.43;6.80;;;1.80;92.70;;;;;;4994428;28;20193;-72
2021/04/13 04:12:59;;;;;;;14.18;7.53;;;1.80;92.80;;;;;;5001833;28;20290;-73
2021/04/13 04:15:28;;;;;;;9.38;6.25;;;1.80;92.80;;;;;;5013461;28;20181;-72
2021/04/13 04:17:54;;;;;;;17.17;7.95;;;1.70;92.70;;;;;;5013213;28;20750;-73
2021/04/13 04:20:32;;;;;;;13.13;6.63;;;1.70;92.70;;;;;;5026515;28;20189;-73
2021/04/13 04:22:58;;;;;;;15.05;7.78;;;1.80;92.90;;;;;;5013187;28;20435;-74
2021/04/13 04:25:39;;;;;;;10.70;6.50;;;1.80;92.80;;;;;;5001491;28;20198;-74
2021/04/13 04:28:18;;;;;;;13.82;7.20;;;1.70;92.90;;;;;;5021225;28;20268;-72
2021/04/13 04:30:44;;;;;;;13.60;7.97;;;1.60;93.00;;;;;;5020997;28;20192;-73
2021/04/13 04:33:37;;;;;;;12.70;7.63;;;1.60;93.00;;;;;;5067036;28;20324;-74
2021/04/13 04:36:39;;;;;;;16.70;7.32;;;1.50;93.20;;;;;;5068622;28;20429;-72
2021/04/13 04:39:27;;;;;;;14.60;7.38;;;1.50;93.50;;;;;;5064260;28;20184;-73
2021/04/13 04:41:56;;;;;;;13.63;7.13;;;1.60;93.40;;;;;;5058170;28;20188;-74
2021/04/13 04:44:24;;;;;;;18.10;7.97;;;1.50;93.40;;;;;;5068607;28;20183;-73
2021/04/13 04:46:54;;;;;;;21.48;8.00;;;1.40;93.50;;;;;;5069533;28;20210;-74
2021/04/13 04:49:20;;;;;;;16.83;8.40;;;1.40;93.50;;;;;;5068752;28;20179;-74
2021/04/13 04:51:49;;;;;;;19.00;8.55;;;1.40;93.70;;;;;;5068577;28;20207;-74
2021/04/13 04:54:15;;;;;;;16.23;8.73;;;1.40;93.80;;;;;;5069389;28;20191;-73
2021/04/13 04:56:41;;;;;;;15.70;8.65;;;1.40;94.00;;;;;;5069298;28;20196;-73
2021/04/13 04:59:07;;;;;;;14.47;8.47;;;1.40;94.00;;;;;;5072668;28;20297;-73
2021/04/13 05:01:33;;;;;;;14.70;8.20;;;1.40;94.20;;;;;;5071629;28;21026;-73
2021/04/13 05:03:59;;;;;;;17.23;9.30;;;1.50;94.60;;;;;;5073266;28;20675;-72
2021/04/13 05:06:25;;;;;;;14.48;7.53;;;1.50;94.70;;;;;;5072922;28;20426;-73
2021/04/13 05:08:52;;;;;;;16.27;9.00;;;1.50;94.40;;;;;;5071356;28;20562;-73
2021/04/13 05:11:18;;;;;;;14.43;7.88;;;1.50;94.20;;;;;;5072894;28;20185;-74
2021/04/13 05:13:43;;;;;;;15.32;8.02;;;1.50;94.20;;;;;;5071493;28;20300;-72
2021/04/13 05:16:09;;;;;;;17.10;8.80;;;1.60;94.20;;;;;;5072464;28;20203;-71
2021/04/13 05:18:35;;;;;;;20.73;9.50;;;1.60;94.10;;;;;;5067537;28;20299;-73
2021/04/13 05:21:01;;;;;;;16.15;8.45;;;1.50;93.80;;;;;;5063719;28;20426;-74
2021/04/13 05:23:27;;;;;;;17.85;9.32;;;1.50;94.10;;;;;;5072079;28;20188;-72
2021/04/13 05:25:53;;;;;;;20.20;8.93;;;1.60;94.10;;;;;;5067723;28;20201;-72
2021/04/13 05:28:19;;;;;;;15.67;8.23;;;1.60;93.80;;;;;;5070241;28;20847;-73
2021/04/13 05:30:48;;;;;;;15.02;8.65;;;1.60;93.70;;;;;;5071972;28;20728;-74
2021/04/13 05:33:14;;;;;;;19.73;8.93;;;1.70;93.50;;;;;;5072467;28;20673;-73
2021/04/13 05:35:39;;;;;;;18.77;9.30;;;1.70;93.40;;;;;;5072129;28;20194;-73
2021/04/13 05:38:14;;;;;;;12.33;7.83;;;1.80;93.40;;;;;;5067392;28;20222;-72
2021/04/13 05:40:40;;;;;;;18.23;8.50;;;1.80;93.00;;;;;;5063809;28;20214;-73
2021/04/13 05:43:09;;;;;;;17.50;8.77;;;1.90;92.60;;;;;;5071970;28;20430;-74
2021/04/13 05:45:37;;;;;;;17.90;8.68;;;2.00;92.20;;;;;;5067304;28;20279;-73
2021/04/13 05:48:03;;;;;;;20.13;9.25;;;2.10;91.70;;;;;;5071898;28;20330;-74
2021/04/13 05:50:32;;;;;;;18.05;9.27;;;2.20;91.60;;;;;;5072014;28;20192;-73
2021/04/13 05:52:58;;;;;;;20.10;9.27;;;2.20;91.50;;;;;;5073611;28;20291;-72
2021/04/13 05:55:24;;;;;;;18.23;8.93;;;2.30;91.40;;;;;;5074268;28;20291;-73
2021/04/13 05:57:53;;;;;;;24.77;9.73;;;2.50;90.70;;;;;;5075610;28;20529;-73
2021/04/13 06:00:23;;;;;;;18.75;9.75;;;2.50;89.30;;;;;;5075058;28;20297;-73
2021/04/13 06:02:49;;;;;;;18.90;9.07;;;2.60;88.10;;;;;;5072388;28;20556;-73
2021/04/13 06:05:18;;;;;;;22.20;9.57;;;2.70;86.80;;;;;;5073531;28;20194;-74
2021/04/13 06:07:44;;;;;;;13.52;8.45;;;2.70;85.00;;;;;;5068063;28;20473;-72
2021/04/13 06:10:10;;;;;;;22.77;9.47;;;2.80;85.20;;;;;;5068807;28;20642;-73
2021/04/13 06:12:36;;;;;;;17.35;9.02;;;2.80;85.30;;;;;;5071363;28;20473;-74
2021/04/13 06:15:04;;;;;;;19.77;10.77;;;3.00;84.90;;;;;;5072758;28;20674;-73
2021/04/13 06:17:30;;;;;;;19.87;9.87;;;3.00;84.30;;;;;;5072068;28;20300;-72
2021/04/13 06:19:56;;;;;;;19.67;9.93;;;3.00;83.70;;;;;;5066203;28;20510;-72
2021/04/13 06:22:23;;;;;;;15.67;9.60;;;3.20;83.70;;;;;;5077337;28;20190;-73
2021/04/13 06:24:49;;;;;;;16.00;9.17;;;3.20;83.30;;;;;;5070963;28;20434;-72
2021/04/13 06:27:15;;;;;;;20.90;10.00;;;3.40;83.10;;;;;;5071390;28;20476;-72
2021/04/13 06:29:41;;;;;;;18.70;10.03;;;3.40;82.80;;;;;;5071701;28;20917;-75
2021/04/13 06:32:09;;;;;;;20.97;10.47;;;3.50;82.70;;;;;;5071498;28;20428;-72
2021/04/13 06:34:36;;;;;;;16.37;9.60;;;3.70;82.40;;;;;;5071069;28;20337;-73
2021/04/13 06:37:04;;;;;;;22.03;11.03;;;3.80;81.10;;;;;;5075092;28;20434;-73
2021/04/13 06:39:32;;;;;;;14.83;9.17;;;4.00;80.50;;;;;;5074453;28;20416;-72
2021/04/13 06:42:16;;;;;;;16.43;9.30;;;4.10;79.60;;;;;;5070111;28;20430;-73
2021/04/13 06:44:48;;;;;;;20.87;10.23;;;4.30;79.30;;;;;;5071313;28;20421;-74
2021/04/13 06:47:43;;;;;;;18.67;11.40;;;4.40;78.70;;;;;;5070863;28;20450;-74
2021/04/13 06:50:23;;;;;;;21.47;10.57;;;4.60;78.10;;;;;;5070801;28;20414;-73
2021/04/13 06:53:03;;;;;;;22.20;10.67;;;4.80;77.70;;;;;;5070893;28;20565;-73
2021/04/13 06:55:59;;;;;;;21.80;9.70;;;4.80;76.80;;;;;;5069172;28;20798;-73
2021/04/13 06:59:02;;;;;;;23.60;11.20;;;4.80;76.40;;;;;;5069223;28;20442;-74
2021/04/13 07:01:49;;;;;;;23.53;11.43;;;4.80;76.50;;;;;;5061725;28;21006;-74
2021/04/13 07:04:30;;;;;;;18.10;10.47;;;4.70;76.40;;;;;;5059039;28;20406;-74
2021/04/13 07:07:05;;;;;;;19.77;10.87;;;4.60;76.80;;;;;;5070970;28;20488;-73
2021/04/13 07:09:47;;;;;;;24.77;10.53;;;4.60;76.70;;;;;;5070935;28;20410;-72
2021/04/13 07:12:34;;;;;;;17.13;10.73;;;4.80;76.50;;;;;;5069906;28;20465;-74
2021/04/13 07:15:13;;;;;;;22.60;12.23;;;4.70;76.10;;;;;;5070579;28;20429;-72
2021/04/13 07:17:46;;;;;;;21.10;10.97;;;4.40;76.70;;;;;;5070739;28;20647;-73
2021/04/13 07:20:24;;;;;;;27.03;11.60;;;4.60;76.80;;;;;;5070832;28;20578;-72
2021/04/13 07:23:05;;;;;;;19.13;11.33;;;4.80;76.50;;;;;;5070030;28;20433;-73
2021/04/13 07:25:50;;;;;;;19.13;11.17;;;4.90;75.10;;;;;;5070280;28;20507;-74
2021/04/13 07:28:30;;;;;;;24.57;11.00;;;4.90;75.20;;;;;;5072345;28;20454;-74
2021/04/13 07:31:03;;;;;;;22.00;12.03;;;5.20;74.60;;;;;;5073797;28;20825;-73
2021/04/13 07:33:32;;;;;;;21.50;11.30;;;5.40;73.70;;;;;;5070479;28;20538;-74
2021/04/13 07:36:03;;;;;;;20.80;11.73;;;5.40;73.00;;;;;;5069378;28;20465;-74
2021/04/13 07:38:42;;;;;;;17.60;9.87;;;5.50;72.10;;;;;;5069586;28;21020;-73
2021/04/13 07:41:43;;;;;;;21.20;11.90;;;5.40;72.10;;;;;;5069516;28;20425;-74
2021/04/13 07:44:17;;;;;;;16.37;11.27;;;5.40;71.40;;;;;;5069804;28;20430;-74
2021/04/13 07:47:11;;;;;;;24.50;12.10;;;5.40;73.00;;;;;;5068747;28;20474;-74
2021/04/13 07:49:47;;;;;;;24.97;12.27;;;5.40;74.20;;;;;;5069266;28;20925;-75
2021/04/13 07:52:18;;;;;;;24.43;12.60;;;5.50;74.90;;;;;;5069571;28;21017;-73
2021/04/13 07:55:15;;;;;;;25.47;12.80;;;5.60;75.40;;;;;;5064829;28;20431;-74
2021/04/13 07:57:49;;;;;;;23.07;12.77;;;5.40;73.90;;;;;;5067273;28;20438;-73
2021/04/13 08:00:34;;;;;;;20.43;11.80;;;5.20;76.50;;;;;;5065379;28;20481;-73
2021/04/13 08:03:33;;;;;;;22.67;11.87;;;5.30;77.70;;;;;;5069524;28;20455;-73
2021/04/13 08:06:05;;;;;;;25.80;12.47;;;5.40;76.20;;;;;;5058143;28;20472;-72
2021/04/13 08:08:37;;;;;;;24.57;11.43;;;5.50;76.20;;;;;;5069158;28;20476;-74
2021/04/13 08:11:17;;;;;;;21.30;12.07;;;5.60;75.70;;;;;;5072959;28;20438;-73
2021/04/13 08:13:46;;;;;;;26.10;13.60;;;5.40;75.10;;;;;;5070647;28;20462;-73
2021/04/13 08:16:29;;;;;;;19.87;12.10;;;5.00;76.70;;;;;;5069851;28;20500;-74
2021/04/13 08:19:27;;;;;;;21.00;10.87;;;5.10;77.40;;;;;;5057661;28;20516;-73
2021/04/13 08:21:59;;;;;;;20.73;11.00;;;4.80;76.40;;;;;;5069677;28;20504;-74
2021/04/13 08:24:39;;;;;;;20.57;11.00;;;4.80;77.30;;;;;;5065242;28;20429;-73
2021/04/13 08:27:12;;;;;;;24.33;12.00;;;5.00;76.50;;;;;;5068280;28;20445;-75
2021/04/13 08:29:38;;;;;;;20.30;11.90;;;5.20;75.80;;;;;;5068946;28;20414;-75
2021/04/13 08:35:09;;;;;;;24.00;12.37;;;5.50;74.90;;;;;;5056075;28;20266;-72
2021/04/13 08:37:53;;;;;;;29.90;13.10;;;5.50;73.30;;;;;;5069822;28;20441;-74
2021/04/13 08:40:29;;;;;;;25.57;11.97;;;5.60;73.50;;;;;;5070107;28;20506;-74
2021/04/13 08:43:13;;;;;;;22.60;12.37;;;5.50;72.70;;;;;;5063980;28;20424;-74
2021/04/13 08:45:46;;;;;;;19.77;10.73;;;5.50;71.70;;;;;;5063594;28;20418;-75
2021/04/13 08:48:19;;;;;;;21.47;12.70;;;5.40;72.00;;;;;;5069065;28;20442;-73
2021/04/13 08:50:51;;;;;;;20.23;10.77;;;5.40;72.10;;;;;;5069276;28;20482;-72
2021/04/13 08:53:37;;;;;;;25.30;13.47;;;5.60;71.70;;;;;;5069828;28;20477;-73
2021/04/13 08:56:11;;;;;;;23.07;12.10;;;5.90;71.30;;;;;;5055589;28;20452;-74
2021/04/13 08:58:50;;;;;;;24.00;11.60;;;5.90;69.40;;;;;;5068622;28;20529;-72
2021/04/13 09:01:24;;;;;;;19.67;10.50;;;5.90;69.90;;;;;;5068816;28;20424;-73
2021/04/13 09:03:50;;;;;;;16.60;10.07;;;6.00;69.50;;;;;;5070546;28;20766;-73
2021/04/13 09:06:43;;;;;;;20.70;10.50;;;5.90;68.30;;;;;;5072171;28;20433;-74
2021/04/13 09:09:15;;;;;;;17.70;10.73;;;5.90;67.60;;;;;;5058490;28;20422;-74
2021/04/13 09:11:47;;;;;;;17.30;10.33;;;5.90;67.00;;;;;;5072049;28;20422;-73
2021/04/13 09:14:28;;;;;;;14.10;7.87;;;6.10;66.30;;;;;;5070327;28;20933;-75
2021/04/13 09:17:07;;;;;;;16.60;8.73;;;6.40;61.90;;;;;;5069009;28;20446;-72
2021/04/13 09:19:39;;;;;;;14.33;8.60;;;6.50;58.80;;;;;;5069045;28;20485;-74
2021/04/13 09:22:23;;;;;;;16.00;8.60;;;6.60;58.10;;;;;;5069812;28;20420;-75
2021/04/13 09:24:54;;;;;;;14.57;8.70;;;6.80;58.20;;;;;;5068027;28;20440;-72
2021/04/13 09:27:26;;;;;;;13.90;7.83;;;6.80;57.30;;;;;;5067975;28;20457;-75
2021/04/13 09:29:54;;;;;;;21.00;8.70;;;6.70;56.40;;;;;;5067937;28;20492;-73
2021/04/13 09:32:23;;;;;;;15.43;8.13;;;6.60;57.80;;;;;;5066291;28;20470;-75
2021/04/13 09:35:16;;;;;;;15.97;9.40;;;6.70;58.20;;;;;;5075108;28;20422;-74
2021/04/13 09:37:42;;;;;;;17.60;10.20;;;6.30;60.70;;;;;;5081875;28;20438;-73
2021/04/13 09:40:33;;;;;;;22.50;10.67;;;6.00;62.00;;;;;;5084012;28;20551;-72
2021/04/13 09:43:26;;;;;;;22.37;9.93;;;5.90;62.50;;;;;;5084715;28;20188;-73
2021/04/13 09:46:26;;;;;;;17.20;9.03;;;5.90;61.60;;;;;;5088073;28;20437;-74
2021/04/13 09:49:08;;;;;;;18.73;9.13;;;5.80;60.70;;;;;;5086455;28;20414;-72
2021/04/13 09:51:59;;;;;;;13.90;8.97;;;5.80;60.30;;;;;;5087183;28;20433;-74
2021/04/13 09:54:43;;;;;;;20.83;10.17;;;5.90;60.70;;;;;;5088577;28;20414;-73
2021/04/13 09:57:42;;;;;;;17.57;9.17;;;6.10;60.10;;;;;;5079483;28;20869;-74
2021/04/13 10:00:18;;;;;;;15.03;8.60;;;6.10;60.10;;;;;;5081365;28;20652;-75
2021/04/13 10:03:08;;;;;;;16.23;9.90;;;6.30;59.10;;;;;;5085997;28;20447;-73
2021/04/13 10:05:37;;;;;;;19.03;9.83;;;6.50;58.10;;;;;;5079006;28;20515;-75
2021/04/13 10:08:17;;;;;;;18.20;9.07;;;6.80;58.50;;;;;;5075698;28;20467;-76
2021/04/13 10:11:02;;;;;;;14.47;9.03;;;7.10;55.80;;;;;;5077388;28;20952;-75
2021/04/13 10:13:46;;;;;;;14.57;8.90;;;7.40;54.20;;;;;;5078874;28;20545;-73
2021/04/13 10:16:21;;;;;;;20.73;8.50;;;7.10;54.10;;;;;;5077028;28;20453;-75
2021/04/13 10:19:05;;;;;;;17.33;9.47;;;7.20;53.00;;;;;;5063426;28;20421;-74
2021/04/13 10:21:52;;;;;;;16.27;7.87;;;7.40;53.80;;;;;;5072996;28;20425;-74
2021/04/13 10:24:33;;;;;;;16.10;8.73;;;7.10;55.80;;;;;;5074209;28;20920;-72
2021/04/13 10:27:36;;;;;;;15.77;8.20;;;7.30;55.70;;;;;;5074367;28;20456;-75
2021/04/13 10:30:17;;;;;;;15.20;8.67;;;7.20;53.80;;;;;;5073506;28;20432;-74
2021/04/13 10:33:07;;;;;;;14.00;8.80;;;6.80;54.00;;;;;;5074975;28;20473;-74
2021/04/13 10:35:54;;;;;;;14.87;7.80;;;6.70;54.00;;;;;;5071093;28;20430;-74
2021/04/13 10:39:01;;;;;;;12.07;7.80;;;6.80;53.00;;;;;;5062673;28;20529;-73
2021/04/13 10:41:55;;;;;;;14.80;7.70;;;6.90;53.20;;;;;;5071415;28;20769;-72
2021/04/13 10:44:52;;;;;;;12.73;7.37;;;7.30;54.10;;;;;;5073131;28;20453;-75
2021/04/13 10:47:36;;;;;;;13.27;7.10;;;7.80;52.60;;;;;;5075376;28;20441;-76
2021/04/13 10:50:27;;;;;;;17.03;8.07;;;8.30;50.20;;;;;;5070366;28;20450;-73
2021/04/13 10:53:19;;;;;;;11.00;7.10;;;8.40;48.30;;;;;;5068308;28;20889;-75
2021/04/13 10:56:02;;;;;;;12.90;7.10;;;7.80;48.20;;;;;;5075513;28;20987;-74
2021/04/13 10:59:10;;;;;;;12.37;7.63;;;7.40;47.90;;;;;;5076793;28;20445;-73
2021/04/13 11:02:18;;;;;;;16.93;8.53;;;7.30;51.00;;;;;;5046286;28;20421;-74
2021/04/13 11:05:27;;;;;;;15.37;8.10;;;6.90;51.40;;;;;;5055565;28;20790;-72
2021/04/13 11:08:21;;;;;;;13.47;7.60;;;6.90;51.80;;;;;;5076291;28;20439;-74
2021/04/13 11:11:17;;;;;;;12.07;7.10;;;7.00;52.20;;;;;;5073332;28;20423;-74
2021/04/13 11:14:11;;;;;;;14.90;7.67;;;7.40;50.90;;;;;;5071699;28;20477;-75
2021/04/13 11:17:10;;;;;;;12.07;8.20;;;7.90;49.40;;;;;;5062395;28;20479;-76
2021/04/13 11:19:45;;;;;;;11.10;6.73;;;8.70;48.10;;;;;;5075733;28;20450;-72
2021/04/13 11:22:36;;;;;;;13.00;6.90;;;9.10;45.90;;;;;;5072531;28;21004;-72
2021/04/13 11:25:32;;;;;;;9.50;5.90;;;8.80;43.80;;;;;;5074246;28;20483;-74
2021/04/13 11:28:16;;;;;;;11.37;7.20;;;8.40;41.10;;;;;;5081104;28;20430;-73
2021/04/13 11:31:11;;;;;;;10.63;6.63;;;8.40;42.20;;;;;;5069581;28;20426;-75
2021/04/13 11:33:49;;;;;;;11.27;6.40;;;9.00;41.00;;;;;;5062795;28;20483;-74
2021/04/13 11:36:43;;;;;;;9.53;5.80;;;9.50;39.80;;;;;;5075679;28;20413;-74
2021/04/13 11:39:27;;;;;;;10.87;6.80;;;9.40;38.30;;;;;;5076075;28;20444;-73
2021/04/13 11:42:38;;;;;;;12.27;7.03;;;9.60;37.80;;;;;;5053890;28;20481;-73
2021/04/13 11:45:09;;;;;;;10.37;6.10;;;9.50;39.20;;;;;;5032874;28;20422;-74
2021/04/13 11:47:39;;;;;;;12.33;6.77;;;9.80;38.30;;;;;;5073273;28;20516;-72
2021/04/13 11:50:29;;;;;;;10.83;6.50;;;10.10;38.00;;;;;;5072868;28;20828;-73
2021/04/13 11:53:06;;;;;;;9.13;5.70;;;10.50;37.10;;;;;;5060049;28;20564;-73
2021/04/13 11:55:45;;;;;;;8.90;5.70;;;10.50;36.00;;;;;;5072986;28;20513;-74
2021/04/13 11:58:25;;;;;;;13.27;7.43;;;10.10;35.50;;;;;;5072282;28;20484;-73
2021/04/13 12:00:55;;;;;;;9.03;5.70;;;10.00;36.30;;;;;;5072676;28;20425;-73
2021/04/13 12:03:32;;;;;;;11.83;6.47;;;10.50;36.60;;;;;;5073401;28;20472;-72
2021/04/13 12:06:10;;;;;;;11.80;7.37;;;10.70;38.30;;;;;;5072227;28;20433;-73
2021/04/13 12:08:35;;;;;;;12.07;6.53;;;9.80;42.30;;;;;;5070501;28;20970;-74
2021/04/13 12:11:04;;;;;;;12.13;7.03;;;9.00;45.40;;;;;;5070513;28;20434;-74
2021/04/13 12:13:48;;;;;;;15.67;8.17;;;8.50;48.30;;;;;;5071489;28;20215;-75
2021/04/13 12:16:19;;;;;;;11.30;7.40;;;8.20;49.90;;;;;;5071990;28;20453;-74
2021/04/13 12:18:50;;;;;;;15.40;7.77;;;7.80;50.20;;;;;;5071762;28;20414;-74
2021/04/13 12:21:21;;;;;;;11.07;6.20;;;7.70;51.00;;;;;;5069223;28;20845;-73
2021/04/13 12:23:56;;;;;;;11.37;5.70;;;7.70;48.60;;;;;;5069404;28;20456;-73
2021/04/13 12:26:36;;;;;;;11.00;5.87;;;7.90;43.10;;;;;;5070569;28;20421;-74
2021/04/13 12:29:29;;;;;;;9.63;5.83;;;8.30;42.30;;;;;;5070967;28;20661;-73
2021/04/13 12:32:13;;;;;;;8.63;5.77;;;9.00;40.70;;;;;;5071544;28;20490;-73
2021/04/13 12:34:58;;;;;;;8.53;5.47;;;9.00;40.20;;;;;;5070827;28;20447;-73
2021/04/13 12:37:45;;;;;;;8.10;5.00;;;9.30;40.30;;;;;;5071078;28;20426;-74
2021/04/13 12:40:19;;;;;;;9.20;5.63;;;9.90;39.40;;;;;;5070780;28;20413;-72
2021/04/13 12:43:14;;;;;;;6.57;4.10;;;9.90;39.80;;;;;;5058318;28;20413;-74
2021/04/13 12:53:26;;;;;;;7.60;4.57;;;9.00;33.60;;;;;;5549691;23;20505;-71
2021/04/13 12:56:02;;;;;;;6.07;3.90;;;8.70;35.10;;;;;;4970279;28;20990;-70
2021/04/13 12:58:32;;;;;;;8.10;4.80;;;9.30;35.50;;;;;;4988929;28;20441;-71
2021/04/13 13:00:58;;;;;;;8.67;4.43;;;9.80;34.90;;;;;;4986487;28;20429;-71
2021/04/13 13:03:32;;;;;;;7.27;4.50;;;10.40;34.80;;;;;;4976372;28;20457;-71
2021/04/13 13:05:58;;;;;;;8.70;4.67;;;10.20;33.60;;;;;;4991729;28;20775;-71
2021/04/13 13:08:30;;;;;;;9.00;4.77;;;10.00;35.20;;;;;;4996897;28;20476;-71
2021/04/13 13:11:07;;;;;;;7.93;5.23;;;10.50;34.90;;;;;;4993541;28;20999;-69
2021/04/13 13:13:35;;;;;;;8.07;5.40;;;11.10;34.40;;;;;;4977045;28;20472;-72
2021/04/13 13:16:12;;;;;;;8.80;5.20;;;11.30;33.90;;;;;;4990174;28;20497;-72
2021/04/13 13:18:42;;;;;;;8.87;5.03;;;10.60;36.30;;;;;;4990253;28;20420;-72
2021/04/13 13:21:15;;;;;;;12.10;5.47;;;9.70;39.80;;;;;;4994405;28;20416;-69
2021/04/13 13:23:47;;;;;;;9.20;5.07;;;9.30;43.20;;;;;;4993658;28;20448;-70
2021/04/13 13:26:31;;;;;;;9.90;5.77;;;8.80;45.70;;;;;;4994359;28;20418;-70
2021/04/13 13:28:56;;;;;;;8.27;5.37;;;8.20;47.40;;;;;;4992421;28;20425;-73
2021/04/13 13:31:34;;;;;;;8.80;5.53;;;7.60;50.70;;;;;;4974476;28;20432;-72
2021/04/13 13:34:12;;;;;;;10.97;6.10;;;7.60;51.30;;;;;;4984192;28;20207;-72
2021/04/13 13:36:40;;;;;;;9.90;5.97;;;7.40;53.00;;;;;;4986191;28;20417;-72
2021/04/13 13:39:29;;;;;;;9.63;5.30;;;7.60;54.80;;;;;;4971694;28;20422;-70
2021/04/13 13:41:59;;;;;;;8.10;5.20;;;7.70;53.00;;;;;;4970355;28;20434;-71
2021/04/13 13:44:39;;;;;;;7.90;5.30;;;7.60;52.50;;;;;;4970743;28;20466;-71
2021/04/13 13:47:31;;;;;;;5.43;4.03;;;7.70;53.40;;;;;;4991661;28;20429;-70
2021/04/13 13:49:58;;;;;;;9.73;5.03;;;8.00;46.50;;;;;;4980816;28;20437;-71
2021/04/13 13:52:42;;;;;;;7.70;4.10;;;8.20;45.80;;;;;;4978731;28;20449;-72